createdAt,value
2023-04-08T00:01:31.210Z,8.77
2023-04-08T00:03:58.010Z,9.05
2023-04-08T00:06:24.643Z,7.88
2023-04-08T00:08:51.623Z,8.80
2023-04-08T00:11:18.290Z,8.52
2023-04-08T00:13:44.804Z,9.15
2023-04-08T00:16:11.375Z,9.73
2023-04-08T00:18:38.440Z,7.28
2023-04-08T00:21:05.038Z,7.05
2023-04-08T00:23:31.595Z,6.68
2023-04-08T00:25:58.104Z,8.60
2023-04-08T00:28:24.699Z,7.93
2023-04-08T00:30:53.164Z,23.65
2023-04-08T00:33:19.716Z,10.23
2023-04-08T00:35:46.353Z,11.25
2023-04-08T00:38:12.898Z,12.20
2023-04-08T00:40:39.460Z,12.30
2023-04-08T00:43:06.007Z,11.52
2023-04-08T00:45:34.298Z,11.50
2023-04-08T00:48:02.832Z,10.32
2023-04-08T00:50:29.436Z,9.40
2023-04-08T00:52:56.080Z,9.55
2023-04-08T00:55:22.745Z,9.65
2023-04-08T00:57:49.412Z,12.02
2023-04-08T01:00:17.488Z,8.48
2023-04-08T01:02:50.128Z,9.85
2023-04-08T01:05:30.364Z,10.07
2023-04-08T01:07:59.844Z,6.95
2023-04-08T01:10:30.596Z,8.90
2023-04-08T01:13:06.416Z,8.73
2023-04-08T01:15:35.542Z,6.68
2023-04-08T01:18:07.307Z,9.65
2023-04-08T01:20:34.924Z,9.20
2023-04-08T01:23:01.433Z,8.02
2023-04-08T01:25:32.353Z,9.70
2023-04-08T01:28:01.912Z,8.32
2023-04-08T01:30:30.674Z,5.78
2023-04-08T01:32:59.330Z,7.88
2023-04-08T01:35:26.327Z,7.88
2023-04-08T01:37:55.280Z,7.45
2023-04-08T01:40:22.086Z,8.07
2023-04-08T01:42:50.753Z,9.65
2023-04-08T01:45:19.118Z,6.68
2023-04-08T01:47:48.242Z,9.52
2023-04-08T01:50:16.553Z,7.68
2023-04-08T01:52:49.091Z,7.57
2023-04-08T01:55:17.023Z,6.38
2023-04-08T01:57:47.861Z,7.55
2023-04-08T02:00:18.564Z,5.38
2023-04-08T02:02:47.381Z,7.68
2023-04-08T02:05:14.522Z,6.28
2023-04-08T02:07:41.128Z,8.05
2023-04-08T02:10:08.210Z,6.80
2023-04-08T02:12:35.031Z,7.22
2023-04-08T02:15:01.729Z,5.57
2023-04-08T02:17:37.614Z,5.25
2023-04-08T02:20:11.001Z,6.50
2023-04-08T02:22:58.768Z,7.18
2023-04-08T02:25:26.241Z,6.78
2023-04-08T02:27:54.664Z,5.78
2023-04-08T02:30:22.586Z,6.53
2023-04-08T02:32:50.305Z,5.28
2023-04-08T02:35:18.453Z,6.75
2023-04-08T02:37:48.162Z,6.60
2023-04-08T02:40:23.581Z,4.60
2023-04-08T02:42:50.405Z,6.32
2023-04-08T02:45:17.222Z,5.72
2023-04-08T02:47:44.274Z,6.07
2023-04-08T02:50:11.043Z,4.50
2023-04-08T02:52:37.612Z,7.05
2023-04-08T02:55:06.633Z,6.25
2023-04-08T02:57:33.191Z,7.43
2023-04-08T02:59:59.715Z,6.05
2023-04-08T03:02:26.410Z,5.93
2023-04-08T03:04:52.970Z,5.32
2023-04-08T03:07:19.475Z,6.40
2023-04-08T03:09:46.517Z,5.53
2023-04-08T03:12:13.035Z,5.60
2023-04-08T03:14:39.558Z,4.72
2023-04-08T03:17:06.061Z,6.32
2023-04-08T03:19:32.587Z,5.47
2023-04-08T03:21:59.089Z,4.80
2023-04-08T03:24:25.711Z,4.82
2023-04-08T03:26:52.222Z,4.75
2023-04-08T03:29:18.928Z,5.25
2023-04-08T03:31:45.796Z,6.25
2023-04-08T03:34:12.400Z,6.47
2023-04-08T03:36:38.989Z,6.57
2023-04-08T03:39:05.883Z,6.68
2023-04-08T03:41:32.403Z,3.75
2023-04-08T03:43:58.921Z,3.22
2023-04-08T03:46:25.795Z,3.17
2023-04-08T03:48:52.570Z,4.25
2023-04-08T03:51:19.295Z,3.20
2023-04-08T03:53:45.828Z,2.90
2023-04-08T03:56:12.544Z,3.40
2023-04-08T03:58:39.201Z,2.35
2023-04-08T04:01:06.008Z,2.45
2023-04-08T04:03:32.703Z,2.30
2023-04-08T04:05:59.470Z,1.92
2023-04-08T04:08:26.028Z,1.98
2023-04-08T04:10:52.616Z,2.35
2023-04-08T04:13:19.676Z,2.42
2023-04-08T04:15:46.428Z,2.55
2023-04-08T04:18:13.025Z,2.40
2023-04-08T04:20:43.284Z,2.25
2023-04-08T04:23:10.235Z,2.55
2023-04-08T04:25:36.824Z,1.90
2023-04-08T04:28:03.529Z,2.42
2023-04-08T04:30:30.069Z,1.17
2023-04-08T04:32:57.660Z,1.95
2023-04-08T04:35:24.491Z,1.00
2023-04-08T04:37:51.945Z,1.55
2023-04-08T04:40:18.599Z,1.55
2023-04-08T04:42:45.390Z,1.50
2023-04-08T04:45:12.527Z,1.30
2023-04-08T04:47:39.087Z,1.13
2023-04-08T04:50:06.773Z,1.27
2023-04-08T04:52:33.289Z,1.00
2023-04-08T04:54:59.821Z,0.90
2023-04-08T04:57:26.642Z,1.20
2023-04-08T04:59:53.220Z,1.02
2023-04-08T05:02:19.823Z,1.10
2023-04-08T05:04:46.436Z,1.00
2023-04-08T05:07:12.960Z,1.20
2023-04-08T05:09:39.470Z,1.20
2023-04-08T05:12:06.498Z,1.30
2023-04-08T05:14:33.536Z,1.10
2023-04-08T05:17:00.049Z,0.90
2023-04-08T05:19:26.665Z,0.93
2023-04-08T05:21:53.192Z,1.20
2023-04-08T05:24:19.717Z,1.58
2023-04-08T05:26:47.842Z,1.30
2023-04-08T05:29:14.410Z,1.00
2023-04-08T05:31:40.912Z,1.65
2023-04-08T05:34:07.478Z,5.15
2023-04-08T05:36:33.997Z,3.10
2023-04-08T05:39:02.066Z,2.38
2023-04-08T05:41:29.388Z,2.40
2023-04-08T05:43:55.920Z,1.33
2023-04-08T05:46:22.446Z,1.00
2023-04-08T05:48:49.292Z,1.30
2023-04-08T05:51:17.991Z,1.13
2023-04-08T05:53:47.448Z,1.00
2023-04-08T05:56:14.036Z,1.00
2023-04-08T05:58:40.570Z,0.95
2023-04-08T06:01:07.330Z,0.75
2023-04-08T06:03:33.966Z,0.90
2023-04-08T06:06:00.836Z,1.30
2023-04-08T06:08:27.391Z,1.40
2023-04-08T06:10:54.005Z,0.90
2023-04-08T06:13:21.979Z,0.70
2023-04-08T06:15:51.524Z,1.00
2023-04-08T06:18:18.298Z,1.20
2023-04-08T06:20:44.849Z,0.70
2023-04-08T06:23:11.393Z,0.70
2023-04-08T06:25:38.051Z,0.80
2023-04-08T06:28:04.716Z,0.70
2023-04-08T06:30:31.252Z,0.70
2023-04-08T06:32:57.952Z,0.50
2023-04-08T06:35:24.914Z,0.77
2023-04-08T06:37:51.510Z,0.70
2023-04-08T06:40:18.100Z,0.80
2023-04-08T06:42:44.653Z,0.60
2023-04-08T06:45:11.411Z,0.50
2023-04-08T06:47:37.932Z,0.50
2023-04-08T06:50:04.962Z,0.70
2023-04-08T06:52:31.489Z,0.88
2023-04-08T06:54:58.016Z,1.02
2023-04-08T06:57:24.557Z,1.25
2023-04-08T06:59:51.155Z,1.25
2023-04-08T07:02:17.748Z,1.10
2023-04-08T07:04:46.651Z,1.00
2023-04-08T07:07:13.394Z,0.70
2023-04-08T07:09:41.522Z,1.10
2023-04-08T07:12:08.078Z,1.25
2023-04-08T07:14:34.735Z,0.80
2023-04-08T07:17:01.317Z,0.88
2023-04-08T07:19:28.388Z,1.10
2023-04-08T07:21:54.930Z,1.40
2023-04-08T07:24:21.461Z,1.15
2023-04-08T07:26:47.965Z,1.40
2023-04-08T07:29:14.553Z,1.23
2023-04-08T07:31:42.796Z,0.90
2023-04-08T07:34:09.335Z,0.95
2023-04-08T07:36:35.977Z,1.45
2023-04-08T07:39:03.310Z,1.20
2023-04-08T07:41:30.135Z,1.13
2023-04-08T07:43:56.708Z,0.70
2023-04-08T07:46:24.176Z,1.08
2023-04-08T07:48:51.081Z,1.30
2023-04-08T07:51:20.269Z,1.25
2023-04-08T07:53:47.733Z,1.08
2023-04-08T07:56:15.783Z,1.00
2023-04-08T07:58:42.844Z,1.27
2023-04-08T08:01:18.724Z,1.90
2023-04-08T08:03:47.869Z,1.10
2023-04-08T08:06:15.493Z,1.00
2023-04-08T08:08:42.056Z,1.45
2023-04-08T08:11:08.677Z,1.25
2023-04-08T08:13:35.208Z,1.15
2023-04-08T08:16:01.929Z,0.80
2023-04-08T08:18:28.486Z,0.80
2023-04-08T08:20:55.095Z,1.00
2023-04-08T08:23:22.099Z,1.17
2023-04-08T08:25:48.638Z,1.35
2023-04-08T08:28:15.139Z,0.77
2023-04-08T08:30:41.663Z,1.30
2023-04-08T08:33:08.204Z,1.00
2023-04-08T08:35:34.798Z,1.33
2023-04-08T08:38:01.748Z,1.17
2023-04-08T08:40:28.285Z,1.00
2023-04-08T08:42:54.992Z,1.20
2023-04-08T08:45:21.666Z,1.15
2023-04-08T08:47:50.438Z,2.80
2023-04-08T08:50:18.534Z,1.95
2023-04-08T08:52:52.550Z,1.40
2023-04-08T08:55:41.313Z,1.50
2023-04-08T08:58:10.229Z,1.40
2023-04-08T09:00:38.508Z,1.30
2023-04-08T09:03:16.402Z,1.40
2023-04-08T09:05:50.339Z,1.77
2023-04-08T09:10:53.996Z,1.80
2023-04-08T09:13:22.641Z,1.85
2023-04-08T09:16:10.283Z,1.70
2023-04-08T09:18:38.356Z,1.45
2023-04-08T09:21:06.161Z,1.65
2023-04-08T09:23:52.836Z,1.40
2023-04-08T09:26:24.725Z,1.05
2023-04-08T09:29:04.005Z,2.08
2023-04-08T09:31:47.326Z,1.83
2023-04-08T09:34:17.140Z,1.60
2023-04-08T09:36:46.455Z,1.20
2023-04-08T09:39:13.473Z,1.88
2023-04-08T09:41:40.906Z,1.40
2023-04-08T09:44:09.487Z,2.03
2023-04-08T09:47:01.119Z,2.00
2023-04-08T09:49:34.197Z,1.23
2023-04-08T09:52:24.375Z,1.80
2023-04-08T09:54:53.639Z,1.90
2023-04-08T09:57:55.682Z,1.60
2023-04-08T10:00:38.876Z,3.40
2023-04-08T10:03:24.447Z,2.20
2023-04-08T10:05:53.140Z,1.55
2023-04-08T10:08:20.224Z,2.33
2023-04-08T10:10:48.041Z,1.63
2023-04-08T10:13:15.442Z,1.70
2023-04-08T10:15:43.287Z,1.17
2023-04-08T10:18:09.856Z,3.70
2023-04-08T10:20:36.398Z,3.13
2023-04-08T10:23:11.462Z,2.47
2023-04-08T10:25:43.044Z,2.45
2023-04-08T10:28:16.266Z,1.15
2023-04-08T10:30:44.195Z,2.60
2023-04-08T10:33:18.482Z,2.85
2023-04-08T10:35:50.164Z,3.60
2023-04-08T10:38:17.745Z,2.03
2023-04-08T10:40:45.228Z,1.48
2023-04-08T10:43:13.511Z,1.05
2023-04-08T10:45:41.222Z,1.20
2023-04-08T10:48:25.126Z,1.60
2023-04-08T10:53:39.761Z,1.55
2023-04-08T10:56:19.047Z,2.22
2023-04-08T10:58:54.171Z,2.97
2023-04-08T11:01:21.344Z,2.30
2023-04-08T11:03:48.909Z,2.70
2023-04-08T11:06:16.362Z,1.50
2023-04-08T11:08:44.691Z,1.70
2023-04-08T11:11:11.859Z,2.67
2023-04-08T11:13:52.101Z,2.80
2023-04-08T11:16:21.595Z,3.58
2023-04-08T11:18:49.572Z,4.88
2023-04-08T11:21:16.796Z,9.88
2023-04-08T11:23:43.480Z,4.88
2023-04-08T11:26:11.230Z,3.35
2023-04-08T11:28:38.552Z,3.13
2023-04-08T11:31:05.825Z,3.00
2023-04-08T11:33:32.825Z,3.05
2023-04-08T11:36:04.434Z,3.28
2023-04-08T11:38:31.221Z,2.85
2023-04-08T11:40:59.813Z,3.85
2023-04-08T11:43:26.589Z,2.28
2023-04-08T11:45:53.217Z,2.60
2023-04-08T11:48:20.118Z,3.40
2023-04-08T11:50:46.830Z,2.78
2023-04-08T11:53:26.215Z,3.88
2023-04-08T11:55:52.760Z,4.45
2023-04-08T11:58:19.330Z,4.25
2023-04-08T12:00:46.039Z,4.15
2023-04-08T12:03:13.691Z,2.42
2023-04-08T12:05:40.941Z,1.75
2023-04-08T12:08:07.490Z,2.33
2023-04-08T12:10:34.218Z,3.45
2023-04-08T12:13:00.811Z,2.63
2023-04-08T12:15:27.405Z,3.78
2023-04-08T12:17:54.126Z,3.22
2023-04-08T12:20:20.763Z,2.90
2023-04-08T12:22:47.323Z,4.15
2023-04-08T12:25:13.837Z,2.65
2023-04-08T12:27:40.595Z,2.28
2023-04-08T12:30:07.857Z,2.30
2023-04-08T12:32:34.768Z,3.15
2023-04-08T12:35:01.367Z,2.90
2023-04-08T12:37:28.057Z,3.83
2023-04-08T12:39:54.624Z,2.75
2023-04-08T12:42:21.221Z,2.40
2023-04-08T12:44:47.741Z,2.78
2023-04-08T12:47:14.314Z,2.78
2023-04-08T12:52:10.644Z,2.83
2023-04-08T12:54:37.175Z,2.53
2023-04-08T12:57:04.610Z,2.47
2023-04-08T12:59:32.216Z,2.20
2023-04-08T13:01:58.984Z,2.20
2023-04-08T13:04:25.562Z,2.28
2023-04-08T13:06:52.303Z,2.67
2023-04-08T13:09:18.822Z,2.10
2023-04-08T13:11:45.880Z,3.03
2023-04-08T13:14:13.735Z,2.90
2023-04-08T13:16:40.510Z,2.22
2023-04-08T13:19:07.066Z,2.75
2023-04-08T13:21:33.610Z,1.98
2023-04-08T13:24:00.162Z,2.25
2023-04-08T13:26:26.697Z,2.25
2023-04-08T13:28:57.345Z,2.38
2023-04-08T13:31:24.714Z,2.92
2023-04-08T13:33:51.358Z,2.65
2023-04-08T13:36:17.945Z,2.40
2023-04-08T13:38:46.087Z,1.92
2023-04-08T13:41:12.784Z,2.15
2023-04-08T13:43:39.314Z,2.85
2023-04-08T13:46:05.952Z,2.70
2023-04-08T13:48:32.547Z,2.30
2023-04-08T13:50:59.055Z,2.53
2023-04-08T13:53:26.158Z,2.35
2023-04-08T13:55:55.234Z,2.30
2023-04-08T13:58:24.189Z,2.75
2023-04-08T14:00:51.855Z,2.90
2023-04-08T14:03:19.310Z,2.80
2023-04-08T14:05:46.105Z,3.65
2023-04-08T14:08:13.648Z,3.00
2023-04-08T14:10:42.074Z,3.42
2023-04-08T14:13:09.110Z,3.60
2023-04-08T14:15:35.785Z,3.60
2023-04-08T14:18:02.388Z,2.63
2023-04-08T14:20:30.085Z,4.10
2023-04-08T14:22:56.979Z,3.60
2023-04-08T14:25:24.042Z,4.30
2023-04-08T14:27:58.091Z,4.13
2023-04-08T14:30:27.233Z,2.70
2023-04-08T14:32:54.505Z,3.75
2023-04-08T14:35:21.773Z,3.65
2023-04-08T14:37:48.402Z,3.03
2023-04-08T14:40:15.030Z,2.42
2023-04-08T14:42:41.832Z,3.75
2023-04-08T14:45:08.945Z,3.97
2023-04-08T14:47:35.661Z,3.60
2023-04-08T14:50:02.327Z,4.70
2023-04-08T14:52:28.883Z,4.25
2023-04-08T14:54:55.430Z,3.42
2023-04-08T14:57:21.982Z,3.15
2023-04-08T14:59:48.722Z,3.58
2023-04-08T15:02:15.503Z,2.88
2023-04-08T15:04:42.076Z,2.45
2023-04-08T15:07:08.942Z,2.78
2023-04-08T15:09:35.489Z,3.47
2023-04-08T15:12:02.789Z,3.13
2023-04-08T15:14:29.481Z,3.55
2023-04-08T15:16:56.297Z,3.15
2023-04-08T15:19:23.002Z,3.17
2023-04-08T15:21:49.873Z,3.67
2023-04-08T15:24:16.850Z,3.60
2023-04-08T15:26:43.395Z,2.40
2023-04-08T15:29:10.017Z,2.58
2023-04-08T15:31:36.652Z,2.47
2023-04-08T15:34:03.652Z,2.50
2023-04-08T15:36:31.182Z,2.53
2023-04-08T15:38:57.856Z,2.90
2023-04-08T15:41:24.629Z,1.92
2023-04-08T15:43:53.166Z,2.22
2023-04-08T15:46:23.201Z,2.25
2023-04-08T15:48:50.803Z,2.65
2023-04-08T15:51:18.017Z,2.30
2023-04-08T15:53:44.797Z,1.90
2023-04-08T15:56:16.242Z,1.98
2023-04-08T15:58:43.458Z,2.90
2023-04-08T16:01:10.218Z,2.65
2023-04-08T16:03:37.355Z,3.13
2023-04-08T16:06:04.297Z,3.13
2023-04-08T16:08:32.414Z,2.90
2023-04-08T16:11:04.684Z,3.17
2023-04-08T16:13:31.643Z,2.83
2023-04-08T16:16:01.580Z,2.78
2023-04-08T16:18:28.921Z,2.30
2023-04-08T16:20:56.647Z,2.08
2023-04-08T16:23:23.862Z,2.72
2023-04-08T16:25:50.718Z,2.78
2023-04-08T16:28:18.497Z,1.83
2023-04-08T16:30:46.382Z,2.50
2023-04-08T16:33:12.919Z,2.50
2023-04-08T16:35:40.135Z,2.63
2023-04-08T16:38:06.870Z,3.10
2023-04-08T16:40:34.583Z,2.20
2023-04-08T16:43:01.739Z,2.35
2023-04-08T16:45:29.902Z,2.97
2023-04-08T16:47:57.340Z,3.45
2023-04-08T16:50:24.408Z,4.10
2023-04-08T16:52:51.080Z,3.50
2023-04-08T16:55:19.103Z,3.88
2023-04-08T16:57:46.081Z,4.65
2023-04-08T17:00:13.069Z,4.03
2023-04-08T17:02:39.930Z,4.20
2023-04-08T17:05:07.347Z,2.42
2023-04-08T17:07:34.014Z,3.67
2023-04-08T17:10:00.760Z,3.90
2023-04-08T17:12:27.556Z,3.17
2023-04-08T17:14:54.179Z,4.00
2023-04-08T17:17:20.892Z,4.95
2023-04-08T17:19:47.557Z,5.25
2023-04-08T17:22:14.214Z,3.67
2023-04-08T17:24:40.880Z,4.20
2023-04-08T17:27:07.408Z,4.43
2023-04-08T17:29:33.995Z,4.85
2023-04-08T17:32:00.727Z,4.43
2023-04-08T17:34:27.389Z,4.35
2023-04-08T17:36:53.937Z,3.33
2023-04-08T17:39:20.659Z,4.45
2023-04-08T17:41:47.221Z,3.72
2023-04-08T17:44:13.812Z,4.85
2023-04-08T17:46:41.022Z,3.63
2023-04-08T17:49:07.653Z,3.22
2023-04-08T17:51:34.780Z,3.70
2023-04-08T17:54:01.472Z,2.75
2023-04-08T17:56:28.365Z,3.10
2023-04-08T17:58:55.003Z,3.80
2023-04-08T18:01:22.933Z,3.63
2023-04-08T18:03:51.866Z,3.78
2023-04-08T18:06:18.797Z,3.47
2023-04-08T18:08:45.532Z,5.53
2023-04-08T18:11:12.448Z,3.58
2023-04-08T18:13:39.248Z,3.38
2023-04-08T18:16:06.264Z,5.90
2023-04-08T18:18:32.823Z,3.90
2023-04-08T18:20:59.402Z,3.58
2023-04-08T18:23:26.136Z,5.10
2023-04-08T18:25:52.764Z,5.75
2023-04-08T18:28:19.433Z,3.90
2023-04-08T18:30:50.892Z,5.85
2023-04-08T18:33:17.468Z,5.43
2023-04-08T18:35:44.084Z,5.13
2023-04-08T18:38:10.795Z,6.65
2023-04-08T18:40:37.363Z,5.60
2023-04-08T18:43:04.992Z,6.93
2023-04-08T18:45:31.655Z,4.55
2023-04-08T18:47:58.207Z,6.07
2023-04-08T18:50:24.856Z,6.20
2023-04-08T18:52:51.786Z,6.35
2023-04-08T18:55:18.543Z,4.95
2023-04-08T18:57:45.183Z,5.18
2023-04-08T19:00:12.097Z,4.25
2023-04-08T19:02:38.729Z,5.78
2023-04-08T19:05:05.774Z,6.40
2023-04-08T19:07:32.717Z,6.50
2023-04-08T19:09:59.609Z,7.07
2023-04-08T19:12:26.841Z,5.97
2023-04-08T19:14:54.295Z,5.10
2023-04-08T19:17:21.087Z,5.75
2023-04-08T19:19:47.699Z,6.07
2023-04-08T19:22:14.445Z,5.60
2023-04-08T19:24:40.944Z,5.68
2023-04-08T19:27:07.579Z,5.30
2023-04-08T19:29:34.796Z,7.05
2023-04-08T19:32:03.204Z,6.60
2023-04-08T19:34:30.116Z,7.65
2023-04-08T19:36:56.942Z,7.70
2023-04-08T19:39:25.980Z,7.40
2023-04-08T19:41:53.700Z,7.50
2023-04-08T19:44:20.438Z,7.15
2023-04-08T19:46:47.136Z,6.63
2023-04-08T19:49:13.778Z,5.03
2023-04-08T19:51:40.425Z,7.45
2023-04-08T19:54:06.954Z,6.70
2023-04-08T19:56:34.121Z,7.13
2023-04-08T19:59:01.950Z,7.05
2023-04-08T20:01:29.304Z,6.97
2023-04-08T20:03:56.116Z,7.35
2023-04-08T20:06:23.321Z,6.63
2023-04-08T20:08:52.288Z,7.72
2023-04-08T20:11:20.052Z,8.00
2023-04-08T20:13:47.628Z,8.30
2023-04-08T20:16:14.370Z,7.78
2023-04-08T20:18:41.006Z,6.70
2023-04-08T20:21:08.341Z,7.15
2023-04-08T20:23:34.919Z,5.10
2023-04-08T20:26:01.669Z,8.23
2023-04-08T20:28:28.383Z,4.75
2023-04-08T20:30:54.981Z,6.15
2023-04-08T20:33:21.729Z,7.68
2023-04-08T20:35:50.596Z,6.75
2023-04-08T20:38:17.255Z,7.43
2023-04-08T20:40:46.807Z,8.77
2023-04-08T20:43:13.375Z,5.70
2023-04-08T20:45:40.042Z,6.63
2023-04-08T20:48:07.576Z,5.85
2023-04-08T20:50:34.723Z,5.70
2023-04-08T20:53:01.492Z,5.70
2023-04-08T20:55:28.067Z,5.82
2023-04-08T20:57:54.698Z,5.38
2023-04-08T21:00:21.336Z,5.72
2023-04-08T21:02:48.429Z,3.55
2023-04-08T21:05:15.852Z,5.63
2023-04-08T21:07:44.690Z,5.53
2023-04-08T21:10:13.004Z,5.63
2023-04-08T21:12:39.624Z,4.85
2023-04-08T21:15:06.532Z,5.63
2023-04-08T21:17:33.117Z,4.45
2023-04-08T21:19:59.734Z,5.13
2023-04-08T21:22:26.331Z,3.92
2023-04-08T21:24:52.912Z,5.15
2023-04-08T21:27:19.491Z,6.90
2023-04-08T21:29:46.204Z,5.15
2023-04-08T21:32:13.096Z,4.28
2023-04-08T21:34:39.750Z,5.90
2023-04-08T21:37:07.205Z,5.05
2023-04-08T21:39:33.822Z,4.82
2023-04-08T21:42:01.626Z,3.03
2023-04-08T21:44:28.210Z,2.97
2023-04-08T21:46:54.932Z,2.55
2023-04-08T21:49:21.785Z,5.10
2023-04-08T21:51:48.274Z,4.78
2023-04-08T21:54:14.885Z,4.43
2023-04-08T21:56:42.670Z,5.40
2023-04-08T21:59:09.293Z,5.13
2023-04-08T22:01:36.236Z,5.63
2023-04-08T22:04:03.106Z,3.28
2023-04-08T22:06:32.563Z,4.22
2023-04-08T22:08:59.805Z,4.80
2023-04-08T22:11:26.535Z,4.32
2023-04-08T22:13:53.882Z,5.10
2023-04-08T22:16:20.450Z,4.90
2023-04-08T22:18:47.325Z,4.88
2023-04-08T22:21:13.901Z,5.20
2023-04-08T22:23:40.914Z,5.40
2023-04-08T22:26:07.498Z,4.93
2023-04-08T22:28:34.461Z,4.53
2023-04-08T22:31:01.476Z,5.85
2023-04-08T22:33:28.161Z,5.28
2023-04-08T22:35:57.525Z,4.20
2023-04-08T22:38:24.279Z,4.53
2023-04-08T22:40:51.230Z,2.85
2023-04-08T22:43:17.808Z,4.82
2023-04-08T22:45:44.403Z,6.38
2023-04-08T22:48:11.507Z,5.45
2023-04-08T22:50:38.056Z,6.72
2023-04-08T22:53:04.717Z,4.88
2023-04-08T22:55:32.049Z,3.58
2023-04-08T22:57:58.639Z,3.78
2023-04-08T23:00:25.361Z,4.45
2023-04-08T23:02:52.022Z,5.00
2023-04-08T23:05:18.840Z,4.60
2023-04-08T23:07:45.708Z,4.97
2023-04-08T23:10:12.330Z,4.60
2023-04-08T23:12:38.918Z,3.88
2023-04-08T23:15:06.405Z,4.90
2023-04-08T23:17:33.034Z,4.63
2023-04-08T23:19:59.587Z,3.90
2023-04-08T23:22:26.159Z,4.10
2023-04-08T23:24:52.750Z,4.25
2023-04-08T23:27:19.320Z,3.45
2023-04-08T23:29:46.068Z,2.63
2023-04-08T23:32:12.633Z,4.70
2023-04-08T23:34:39.253Z,4.50
2023-04-08T23:37:05.871Z,5.60
2023-04-08T23:39:32.590Z,5.32
2023-04-08T23:41:59.204Z,4.90
2023-04-08T23:44:25.788Z,4.80
2023-04-08T23:46:52.392Z,4.15
2023-04-08T23:49:19.158Z,4.40
2023-04-08T23:51:45.784Z,4.88
2023-04-08T23:54:12.342Z,4.63
2023-04-08T23:56:40.970Z,4.78
2023-04-08T23:59:07.635Z,3.30
